Time;durP1;ratioP1;P1;durP2;ratioP2;P2;SDS_P1;SDS_P2;PMS_P1;PMS_P2;Temp;Humidity;BMP_temperature;BMP_pressure;BME280_temperature;BME280_humidity;BME280_pressure;Samples;Min_cycle;Max_cycle;Signal;HPM_P1;HPM_P2
2023/01/03 00:00:49;;;;;;;9.43;6.30;;;;;;;;;;5001103;28;20858;-54
2023/01/03 00:03:18;;;;;;;5.87;5.07;;;;;;;;;;5006893;28;20183;-53
2023/01/03 00:05:45;;;;;;;6.10;5.47;;;;;;;;;;5005522;28;20194;-53
2023/01/03 00:08:11;;;;;;;6.27;5.63;;;;;;;;;;5004779;28;20225;-53
2023/01/03 00:10:37;;;;;;;7.60;5.40;;;;;;;;;;4987491;28;20787;-53
2023/01/03 00:13:03;;;;;;;5.90;5.30;;;;;;;;;;5003679;28;20731;-53
2023/01/03 00:15:29;;;;;;;7.60;4.87;;;;;;;;;;4996656;28;20202;-53
2023/01/03 00:17:55;;;;;;;4.87;4.33;;;;;;;;;;5001149;28;20214;-53
2023/01/03 00:20:22;;;;;;;6.37;4.10;;;;;;;;;;5000772;28;20574;-54
2023/01/03 00:22:48;;;;;;;10.07;5.60;;;;;;;;;;5000496;28;20189;-54
2023/01/03 00:25:14;;;;;;;6.63;4.80;;;;;;;;;;5002786;28;20179;-54
2023/01/03 00:27:40;;;;;;;5.13;4.57;;;;;;;;;;5000455;28;20175;-54
2023/01/03 00:30:06;;;;;;;5.90;4.97;;;;;;;;;;4999115;28;20206;-53
2023/01/03 00:32:32;;;;;;;4.70;4.30;;;;;;;;;;5001635;28;20649;-53
2023/01/03 00:34:58;;;;;;;6.00;4.53;;;;;;;;;;5001079;28;20665;-53
2023/01/03 00:37:24;;;;;;;5.53;4.23;;;;;;;;;;5000624;28;20205;-54
2023/01/03 00:39:50;;;;;;;6.60;4.30;;;;;;;;;;5006077;28;20181;-54
2023/01/03 00:42:16;;;;;;;7.10;4.70;;;;;;;;;;5003125;28;20214;-54
2023/01/03 00:44:42;;;;;;;6.77;4.57;;;;;;;;;;5002948;28;20446;-53
2023/01/03 00:47:09;;;;;;;5.13;4.20;;;;;;;;;;4997565;28;20596;-54
2023/01/03 00:49:35;;;;;;;5.33;4.77;;;;;;;;;;5001960;28;20646;-54
2023/01/03 00:52:01;;;;;;;5.03;3.80;;;;;;;;;;4997865;28;20598;-54
2023/01/03 00:54:27;;;;;;;6.23;4.20;;;;;;;;;;4994143;28;20626;-54
2023/01/03 00:56:53;;;;;;;8.43;4.20;;;;;;;;;;5002872;28;20874;-54
2023/01/03 00:59:20;;;;;;;4.60;4.20;;;;;;;;;;5000135;28;20175;-55
2023/01/03 01:01:50;;;;;;;4.93;4.10;;;;;;;;;;4998207;28;20177;-54
2023/01/03 01:04:21;;;;;;;4.70;4.23;;;;;;;;;;4990530;28;20210;-54
2023/01/03 01:06:48;;;;;;;5.90;4.40;;;;;;;;;;5007437;28;20171;-54
2023/01/03 01:09:16;;;;;;;5.23;4.70;;;;;;;;;;5002374;28;20589;-54
2023/01/03 01:11:42;;;;;;;6.77;4.57;;;;;;;;;;4997847;28;20186;-54
2023/01/03 01:14:21;;;;;;;6.33;4.30;;;;;;;;;;5007206;28;20184;-54
2023/01/03 01:16:49;;;;;;;6.00;4.13;;;;;;;;;;4991023;28;20195;-54
2023/01/03 01:19:16;;;;;;;5.53;4.60;;;;;;;;;;5003090;28;20545;-54
2023/01/03 01:21:43;;;;;;;4.73;4.33;;;;;;;;;;4995192;28;20175;-54
2023/01/03 01:24:16;;;;;;;5.13;4.60;;;;;;;;;;4997608;28;20592;-54
2023/01/03 01:26:42;;;;;;;5.07;4.50;;;;;;;;;;5005236;28;20181;-54
2023/01/03 01:29:09;;;;;;;4.87;4.03;;;;;;;;;;4998462;28;20646;-54
2023/01/03 01:31:35;;;;;;;8.47;5.03;;;;;;;;;;5002229;28;20261;-55
2023/01/03 01:34:01;;;;;;;5.07;4.57;;;;;;;;;;4999117;28;20269;-54
2023/01/03 01:36:29;;;;;;;6.20;4.77;;;;;;;;;;4997000;28;20251;-54
2023/01/03 01:38:56;;;;;;;7.37;5.00;;;;;;;;;;4977746;28;20180;-54
2023/01/03 01:44:38;;;;;;;8.07;4.83;;;;;;;;;;5001179;28;20276;-54
2023/01/03 01:47:04;;;;;;;5.37;4.53;;;;;;;;;;4998343;28;20187;-54
2023/01/03 01:49:30;;;;;;;4.40;4.00;;;;;;;;;;5002354;28;20603;-54
2023/01/03 01:51:56;;;;;;;5.37;4.43;;;;;;;;;;5003217;28;20226;-54
2023/01/03 01:54:23;;;;;;;5.80;5.23;;;;;;;;;;5005324;28;20170;-54
2023/01/03 01:56:50;;;;;;;4.97;4.50;;;;;;;;;;5001994;28;20981;-55
2023/01/03 01:59:17;;;;;;;5.73;4.30;;;;;;;;;;5004132;28;20657;-54
2023/01/03 02:01:44;;;;;;;5.90;4.50;;;;;;;;;;4997219;28;20572;-54
2023/01/03 02:04:30;;;;;;;8.60;4.90;;;;;;;;;;4994988;28;20254;-54
2023/01/03 02:06:57;;;;;;;6.13;4.63;;;;;;;;;;4994034;28;20752;-53
2023/01/03 02:09:23;;;;;;;7.57;5.63;;;;;;;;;;5004238;28;20190;-54
2023/01/03 02:14:42;;;;;;;9.27;5.77;;;;;;;;;;4997104;28;20228;-54
2023/01/03 02:17:19;;;;;;;6.60;5.43;;;;;;;;;;5006085;28;20218;-54
2023/01/03 02:19:45;;;;;;;7.60;5.33;;;;;;;;;;4996549;28;20175;-54
2023/01/03 02:22:26;;;;;;;6.27;5.57;;;;;;;;;;5000130;28;20596;-53
2023/01/03 02:24:58;;;;;;;9.50;6.03;;;;;;;;;;4999464;28;20265;-53
2023/01/03 02:27:43;;;;;;;8.37;5.50;;;;;;;;;;5001915;28;20617;-54
2023/01/03 02:30:09;;;;;;;9.33;6.80;;;;;;;;;;4988673;28;20171;-53
2023/01/03 02:32:41;;;;;;;8.17;5.43;;;;;;;;;;5001469;28;20170;-54
2023/01/03 02:35:30;;;;;;;6.10;5.13;;;;;;;;;;5002777;28;20171;-54
2023/01/03 02:37:59;;;;;;;5.77;4.87;;;;;;;;;;4990917;28;20218;-54
2023/01/03 02:40:25;;;;;;;5.83;4.80;;;;;;;;;;5002294;28;20186;-53
2023/01/03 02:42:56;;;;;;;6.47;4.93;;;;;;;;;;5003826;28;20175;-54
2023/01/03 02:45:41;;;;;;;8.60;5.93;;;;;;;;;;5001153;28;20263;-53
2023/01/03 02:48:16;;;;;;;6.97;5.70;;;;;;;;;;5000694;28;20179;-54
2023/01/03 02:50:44;;;;;;;7.73;4.70;;;;;;;;;;5001249;28;20273;-54
2023/01/03 02:53:12;;;;;;;7.00;4.63;;;;;;;;;;5003378;28;20219;-54
2023/01/03 02:55:38;;;;;;;6.40;4.80;;;;;;;;;;4999480;28;20205;-54
2023/01/03 02:58:10;;;;;;;5.77;4.60;;;;;;;;;;4991926;28;20575;-54
2023/01/03 03:00:40;;;;;;;6.20;4.57;;;;;;;;;;5002078;28;20183;-54
2023/01/03 03:03:10;;;;;;;6.40;4.50;;;;;;;;;;5004849;28;20225;-54
2023/01/03 03:05:42;;;;;;;6.47;4.27;;;;;;;;;;5009819;28;20230;-54
2023/01/03 03:08:08;;;;;;;5.97;4.30;;;;;;;;;;4995266;28;20183;-54
2023/01/03 03:13:24;;;;;;;5.40;4.70;;;;;;;;;;5004053;28;20197;-54
2023/01/03 03:15:59;;;;;;;7.30;4.93;;;;;;;;;;4999202;28;20621;-53
2023/01/03 03:18:43;;;;;;;5.07;3.80;;;;;;;;;;5001212;28;20206;-54
2023/01/03 03:26:44;;;;;;;4.60;3.83;;;;;;;;;;4998295;28;20540;-53
2023/01/03 03:29:13;;;;;;;4.40;4.00;;;;;;;;;;4993948;28;20182;-54
2023/01/03 03:31:49;;;;;;;6.00;3.87;;;;;;;;;;5008611;28;20179;-54
2023/01/03 03:34:18;;;;;;;5.13;3.63;;;;;;;;;;5001638;28;20649;-54
2023/01/03 03:36:52;;;;;;;3.33;3.03;;;;;;;;;;5004600;28;20282;-54
2023/01/03 03:45:12;;;;;;;4.53;3.73;;;;;;;;;;5002242;28;20190;-53
2023/01/03 03:47:47;;;;;;;3.70;3.20;;;;;;;;;;5008678;28;20558;-54
2023/01/03 03:50:19;;;;;;;6.77;3.77;;;;;;;;;;4996768;28;20657;-54
2023/01/03 03:52:47;;;;;;;4.07;3.60;;;;;;;;;;5003550;28;20276;-54
2023/01/03 03:55:47;;;;;;;3.80;3.50;;;;;;;;;;5001937;28;20681;-53
2023/01/03 03:58:18;;;;;;;4.53;3.80;;;;;;;;;;5006568;28;20722;-54
2023/01/03 04:00:45;;;;;;;5.47;3.93;;;;;;;;;;5003618;28;20555;-54
2023/01/03 04:03:11;;;;;;;5.20;4.77;;;;;;;;;;5004451;28;20645;-54
2023/01/03 04:05:40;;;;;;;4.67;3.53;;;;;;;;;;4981741;28;20187;-54
2023/01/03 04:08:06;;;;;;;5.77;4.10;;;;;;;;;;4995374;28;20708;-54
2023/01/03 04:10:32;;;;;;;4.27;3.87;;;;;;;;;;5004647;28;20178;-54
2023/01/03 04:12:58;;;;;;;4.43;3.90;;;;;;;;;;5001950;28;20502;-54
2023/01/03 04:15:24;;;;;;;5.13;4.17;;;;;;;;;;4993005;28;20179;-54
2023/01/03 04:17:50;;;;;;;5.00;3.67;;;;;;;;;;5000562;28;20233;-54
2023/01/03 04:20:17;;;;;;;7.33;4.10;;;;;;;;;;5000816;28;20163;-53
2023/01/03 04:22:43;;;;;;;3.93;3.63;;;;;;;;;;5001893;28;20203;-54
2023/01/03 04:25:09;;;;;;;4.70;3.67;;;;;;;;;;4999876;28;20237;-54
2023/01/03 04:27:35;;;;;;;5.50;4.00;;;;;;;;;;5004248;28;20479;-54
2023/01/03 04:30:02;;;;;;;4.60;3.93;;;;;;;;;;4996045;28;20206;-54
2023/01/03 04:32:28;;;;;;;5.33;4.07;;;;;;;;;;5002820;28;20192;-54
2023/01/03 04:34:54;;;;;;;4.97;4.00;;;;;;;;;;5003425;28;20348;-53
2023/01/03 04:37:20;;;;;;;4.20;3.80;;;;;;;;;;5002039;28;20190;-53
2023/01/03 04:39:46;;;;;;;4.30;3.90;;;;;;;;;;5007314;28;20194;-53
2023/01/03 04:44:56;;;;;;;4.33;3.90;;;;;;;;;;5006806;28;20205;-53
2023/01/03 04:47:22;;;;;;;6.83;3.87;;;;;;;;;;4999770;28;20183;-53
2023/01/03 04:49:48;;;;;;;5.33;4.00;;;;;;;;;;5000714;28;20455;-54
2023/01/03 04:52:15;;;;;;;4.63;4.10;;;;;;;;;;5007643;28;20229;-54
2023/01/03 04:54:41;;;;;;;4.13;3.73;;;;;;;;;;5006344;28;20252;-54
2023/01/03 04:57:07;;;;;;;4.03;3.63;;;;;;;;;;5006135;28;20789;-54
2023/01/03 04:59:34;;;;;;;4.23;3.83;;;;;;;;;;5007652;28;20183;-54
2023/01/03 05:02:00;;;;;;;6.33;4.17;;;;;;;;;;5007706;28;20547;-53
2023/01/03 05:04:27;;;;;;;5.57;3.83;;;;;;;;;;4997953;28;20630;-54
2023/01/03 05:06:53;;;;;;;4.90;4.40;;;;;;;;;;4988849;28;20712;-53
2023/01/03 05:09:19;;;;;;;4.53;4.13;;;;;;;;;;4993836;28;20189;-53
2023/01/03 05:11:45;;;;;;;4.33;3.90;;;;;;;;;;5000244;28;20182;-54
2023/01/03 05:14:12;;;;;;;6.07;3.83;;;;;;;;;;5002621;28;20821;-53
2023/01/03 05:16:38;;;;;;;5.40;4.23;;;;;;;;;;4995074;28;20257;-53
2023/01/03 05:19:04;;;;;;;5.47;4.23;;;;;;;;;;5000230;28;20179;-54
2023/01/03 05:27:00;;;;;;;5.90;4.17;;;;;;;;;;4994680;28;20188;-53
2023/01/03 05:29:27;;;;;;;4.73;4.33;;;;;;;;;;5003655;28;20190;-53
2023/01/03 05:31:53;;;;;;;6.10;3.80;;;;;;;;;;5003660;28;20183;-54
2023/01/03 05:34:19;;;;;;;5.77;4.27;;;;;;;;;;4979303;28;20206;-54
2023/01/03 05:36:45;;;;;;;5.70;3.70;;;;;;;;;;4999026;28;20665;-54
2023/01/03 05:39:11;;;;;;;4.67;3.60;;;;;;;;;;5005454;28;20784;-54
2023/01/03 05:44:22;;;;;;;4.27;3.87;;;;;;;;;;5002843;28;20216;-54
2023/01/03 05:46:48;;;;;;;6.67;4.40;;;;;;;;;;5000843;28;20189;-54
2023/01/03 05:49:15;;;;;;;5.03;3.93;;;;;;;;;;4993828;28;20209;-54
2023/01/03 05:51:41;;;;;;;5.73;4.63;;;;;;;;;;5003364;28;20298;-53
2023/01/03 05:54:08;;;;;;;6.57;4.30;;;;;;;;;;4977302;28;20768;-54
2023/01/03 05:56:34;;;;;;;5.50;4.90;;;;;;;;;;4998013;28;20689;-53
2023/01/03 05:59:00;;;;;;;4.90;4.40;;;;;;;;;;5001877;28;20543;-53
2023/01/03 06:01:27;;;;;;;5.17;4.30;;;;;;;;;;5001894;28;20193;-54
2023/01/03 06:03:54;;;;;;;6.23;4.40;;;;;;;;;;5002361;28;20187;-54
2023/01/03 06:06:20;;;;;;;6.07;4.43;;;;;;;;;;4997999;28;20175;-53
2023/01/03 06:08:46;;;;;;;4.73;4.17;;;;;;;;;;4999612;28;20174;-54
2023/01/03 06:11:13;;;;;;;5.30;4.57;;;;;;;;;;4999428;28;20644;-54
2023/01/03 06:13:40;;;;;;;4.57;4.10;;;;;;;;;;4998242;28;20606;-54
2023/01/03 06:18:52;;;;;;;11.47;5.30;;;;;;;;;;5001960;28;20238;-54
2023/01/03 06:21:18;;;;;;;5.33;4.27;;;;;;;;;;5002551;28;20261;-54
2023/01/03 06:23:46;;;;;;;5.83;4.70;;;;;;;;;;4995127;28;20695;-54
2023/01/03 06:26:12;;;;;;;6.30;4.30;;;;;;;;;;4999735;28;20178;-54
2023/01/03 06:28:38;;;;;;;7.40;4.50;;;;;;;;;;4999049;28;20213;-54
2023/01/03 06:31:05;;;;;;;5.57;4.37;;;;;;;;;;5000642;28;20519;-54
2023/01/03 06:33:31;;;;;;;5.07;4.57;;;;;;;;;;4999349;28;20178;-54
2023/01/03 06:35:57;;;;;;;4.97;4.00;;;;;;;;;;5000916;28;20202;-54
2023/01/03 06:38:23;;;;;;;4.60;4.10;;;;;;;;;;5000499;28;20576;-54
2023/01/03 06:40:49;;;;;;;6.07;4.23;;;;;;;;;;5002844;28;20637;-53
2023/01/03 06:43:15;;;;;;;6.57;4.43;;;;;;;;;;5007148;28;20190;-54
2023/01/03 06:54:00;;;;;;;6.97;4.50;;;;;;;;;;5006132;28;20233;-54
2023/01/03 06:56:26;;;;;;;5.53;4.07;;;;;;;;;;5005392;28;20484;-53
2023/01/03 06:58:52;;;;;;;5.60;4.67;;;;;;;;;;5009182;28;20181;-54
2023/01/03 07:01:18;;;;;;;8.83;4.13;;;;;;;;;;5006423;28;20638;-53
2023/01/03 07:03:44;;;;;;;6.40;4.50;;;;;;;;;;5002816;28;20182;-54
2023/01/03 07:06:17;;;;;;;6.50;4.13;;;;;;;;;;5000294;28;20174;-54
2023/01/03 07:08:43;;;;;;;6.17;4.27;;;;;;;;;;4994064;28;20225;-54
2023/01/03 07:11:09;;;;;;;6.03;4.57;;;;;;;;;;5013153;28;20177;-54
2023/01/03 07:16:20;;;;;;;4.53;3.93;;;;;;;;;;5003261;28;20731;-54
2023/01/03 07:18:46;;;;;;;6.47;4.00;;;;;;;;;;4993757;28;20803;-53
2023/01/03 07:21:19;;;;;;;4.57;3.90;;;;;;;;;;5002406;28;20186;-54
2023/01/03 07:23:45;;;;;;;8.33;4.60;;;;;;;;;;4998000;28;20389;-54
2023/01/03 07:26:11;;;;;;;6.63;4.17;;;;;;;;;;5005208;28;20178;-53
2023/01/03 07:28:37;;;;;;;5.83;4.17;;;;;;;;;;5002111;28;20181;-54
2023/01/03 07:31:04;;;;;;;7.47;4.10;;;;;;;;;;5008140;28;20179;-54
2023/01/03 07:33:31;;;;;;;6.43;4.17;;;;;;;;;;5004739;28;20174;-54
2023/01/03 07:36:01;;;;;;;5.30;3.43;;;;;;;;;;4999349;28;20549;-54
2023/01/03 07:38:27;;;;;;;4.63;3.93;;;;;;;;;;5000621;28;20205;-54
2023/01/03 07:41:00;;;;;;;5.97;5.37;;;;;;;;;;5006899;28;20178;-54
2023/01/03 07:43:35;;;;;;;4.30;3.87;;;;;;;;;;5000984;28;20178;-54
2023/01/03 07:46:05;;;;;;;3.97;3.50;;;;;;;;;;5001741;28;20178;-54
2023/01/03 07:48:31;;;;;;;10.00;4.23;;;;;;;;;;4996880;28;20675;-54
2023/01/03 07:50:57;;;;;;;5.63;4.00;;;;;;;;;;4997577;28;20175;-54
2023/01/03 07:53:24;;;;;;;4.33;3.97;;;;;;;;;;4986450;28;20286;-54
2023/01/03 07:55:50;;;;;;;6.77;4.57;;;;;;;;;;4982188;28;20191;-54
2023/01/03 07:58:16;;;;;;;4.63;4.17;;;;;;;;;;4992599;28;20297;-54
2023/01/03 08:00:42;;;;;;;7.17;4.00;;;;;;;;;;5006231;28;20266;-54
2023/01/03 08:03:08;;;;;;;4.20;3.67;;;;;;;;;;5002528;28;20690;-54
2023/01/03 08:05:34;;;;;;;5.27;4.03;;;;;;;;;;5001618;28;20171;-53
2023/01/03 08:08:01;;;;;;;5.10;3.77;;;;;;;;;;5001963;28;20217;-54
2023/01/03 08:13:18;;;;;;;7.27;3.87;;;;;;;;;;5002638;28;20194;-54
2023/01/03 08:15:51;;;;;;;4.37;3.73;;;;;;;;;;4998604;28;20665;-54
2023/01/03 08:18:19;;;;;;;4.60;3.97;;;;;;;;;;5001305;28;20715;-54
2023/01/03 08:20:45;;;;;;;3.93;3.40;;;;;;;;;;5003397;28;20200;-53
2023/01/03 08:23:11;;;;;;;5.03;4.00;;;;;;;;;;4998073;28;20178;-53
2023/01/03 08:25:39;;;;;;;4.93;3.90;;;;;;;;;;4998409;28;20597;-54
2023/01/03 08:28:06;;;;;;;5.70;3.97;;;;;;;;;;4998321;28;20178;-54
2023/01/03 08:30:32;;;;;;;4.33;3.70;;;;;;;;;;5007425;28;20166;-53
2023/01/03 08:33:01;;;;;;;6.33;3.73;;;;;;;;;;4992590;28;20175;-53
2023/01/03 08:35:29;;;;;;;7.10;3.37;;;;;;;;;;4993646;28;20595;-53
2023/01/03 08:37:55;;;;;;;6.63;3.93;;;;;;;;;;4999384;28;20205;-53
2023/01/03 08:40:21;;;;;;;3.83;3.53;;;;;;;;;;4993502;28;20716;-54
2023/01/03 08:42:47;;;;;;;7.33;3.73;;;;;;;;;;5003208;28;20531;-54
2023/01/03 08:45:15;;;;;;;4.97;3.73;;;;;;;;;;4998669;28;20193;-54
2023/01/03 08:47:42;;;;;;;5.10;3.83;;;;;;;;;;5002131;28;20202;-54
2023/01/03 08:50:08;;;;;;;7.07;3.27;;;;;;;;;;4979794;28;20187;-54
2023/01/03 08:52:34;;;;;;;5.07;3.60;;;;;;;;;;4996105;28;20196;-53
2023/01/03 08:55:00;;;;;;;4.57;3.60;;;;;;;;;;4997219;28;20661;-53
2023/01/03 08:57:26;;;;;;;4.97;3.83;;;;;;;;;;4973679;28;20682;-53
2023/01/03 08:59:52;;;;;;;6.50;4.00;;;;;;;;;;4997081;28;20257;-53
2023/01/03 09:02:18;;;;;;;4.07;3.50;;;;;;;;;;5003797;28;20309;-54
2023/01/03 09:04:44;;;;;;;4.63;4.07;;;;;;;;;;5001891;28;20245;-55
2023/01/03 09:07:11;;;;;;;4.67;4.17;;;;;;;;;;4999146;28;20673;-54
2023/01/03 09:09:37;;;;;;;7.93;4.30;;;;;;;;;;4997350;28;20732;-54
2023/01/03 09:12:03;;;;;;;3.93;3.53;;;;;;;;;;5005484;28;20167;-53
2023/01/03 09:14:30;;;;;;;5.03;3.60;;;;;;;;;;5000681;28;20597;-53
2023/01/03 09:16:56;;;;;;;8.40;4.47;;;;;;;;;;5003311;28;20225;-54
2023/01/03 09:19:22;;;;;;;5.47;3.63;;;;;;;;;;5003242;28;20681;-53
2023/01/03 09:21:48;;;;;;;4.93;3.93;;;;;;;;;;5003282;28;20179;-53
2023/01/03 09:24:14;;;;;;;5.33;4.37;;;;;;;;;;5001187;28;20179;-53
2023/01/03 09:26:40;;;;;;;6.80;4.23;;;;;;;;;;5006899;28;20182;-53
2023/01/03 09:29:06;;;;;;;4.07;3.67;;;;;;;;;;5005606;28;20536;-53
2023/01/03 09:31:33;;;;;;;5.10;4.13;;;;;;;;;;5007184;28;20709;-53
2023/01/03 09:34:01;;;;;;;5.67;4.57;;;;;;;;;;5002463;28;20185;-53
2023/01/03 09:36:27;;;;;;;4.87;4.47;;;;;;;;;;4995831;28;20179;-53
2023/01/03 09:38:54;;;;;;;6.27;4.07;;;;;;;;;;5000824;28;20193;-53
2023/01/03 09:41:22;;;;;;;6.47;5.20;;;;;;;;;;5006086;28;20893;-53
2023/01/03 09:43:50;;;;;;;5.07;4.20;;;;;;;;;;4997937;28;20630;-53
2023/01/03 09:46:18;;;;;;;5.83;4.30;;;;;;;;;;5003487;28;20178;-53
2023/01/03 09:48:45;;;;;;;4.70;3.80;;;;;;;;;;4996009;28;20187;-54
2023/01/03 10:05:49;;;;;;;6.60;4.43;;;;;;;;;;4996225;28;20258;-53
2023/01/03 10:08:21;;;;;;;5.83;4.33;;;;;;;;;;4997752;28;20186;-53
2023/01/03 10:11:06;;;;;;;7.10;4.40;;;;;;;;;;4995732;28;20265;-53
2023/01/03 10:13:44;;;;;;;4.97;4.47;;;;;;;;;;4977848;28;20193;-53
2023/01/03 10:16:30;;;;;;;6.77;3.80;;;;;;;;;;4994826;28;20193;-53
2023/01/03 10:19:18;;;;;;;5.00;3.70;;;;;;;;;;5003419;28;20182;-54
2023/01/03 10:21:47;;;;;;;5.20;3.70;;;;;;;;;;4994977;28;20183;-54
2023/01/03 10:24:17;;;;;;;5.67;3.93;;;;;;;;;;5000355;28;20661;-54
2023/01/03 10:26:43;;;;;;;4.43;3.53;;;;;;;;;;5001326;28;20221;-54
2023/01/03 10:29:09;;;;;;;4.27;3.67;;;;;;;;;;5003902;28;20201;-54
2023/01/03 10:31:53;;;;;;;4.87;3.30;;;;;;;;;;5007473;28;20193;-54
2023/01/03 10:34:19;;;;;;;3.67;3.10;;;;;;;;;;5006968;28;20527;-54
2023/01/03 10:36:45;;;;;;;3.50;3.10;;;;;;;;;;5002300;28;20210;-54
2023/01/03 10:39:11;;;;;;;3.90;3.50;;;;;;;;;;4986517;28;20232;-54
2023/01/03 10:41:48;;;;;;;6.50;3.93;;;;;;;;;;5008209;28;20183;-54
2023/01/03 10:44:27;;;;;;;4.10;3.53;;;;;;;;;;5005896;28;20182;-54
2023/01/03 10:46:55;;;;;;;9.63;3.60;;;;;;;;;;5005751;28;20310;-53
2023/01/03 10:49:23;;;;;;;4.60;3.73;;;;;;;;;;5003343;28;20655;-54
2023/01/03 10:52:08;;;;;;;3.40;3.10;;;;;;;;;;5006252;28;20174;-54
2023/01/03 10:54:40;;;;;;;4.90;3.27;;;;;;;;;;5007557;28;20218;-53
2023/01/03 10:57:06;;;;;;;5.03;3.00;;;;;;;;;;5007819;28;20540;-53
2023/01/03 10:59:32;;;;;;;4.13;3.07;;;;;;;;;;5002920;28;20639;-53
2023/01/03 11:02:15;;;;;;;5.07;3.20;;;;;;;;;;4972515;28;20183;-53
2023/01/03 11:04:41;;;;;;;3.10;2.70;;;;;;;;;;5007323;28;20261;-53
2023/01/03 11:07:07;;;;;;;6.03;3.00;;;;;;;;;;5006895;28;20194;-53
2023/01/03 11:09:53;;;;;;;4.17;3.30;;;;;;;;;;5016856;28;20240;-54
2023/01/03 11:12:29;;;;;;;3.83;2.87;;;;;;;;;;5006690;28;20222;-54
2023/01/03 11:14:56;;;;;;;2.90;2.70;;;;;;;;;;4975750;28;20252;-54
2023/01/03 11:17:24;;;;;;;3.53;2.97;;;;;;;;;;5005754;28;20214;-53
2023/01/03 11:19:50;;;;;;;3.80;3.00;;;;;;;;;;4999028;28;20303;-54
2023/01/03 11:22:35;;;;;;;4.73;3.47;;;;;;;;;;4995568;28;20170;-54
2023/01/03 11:25:28;;;;;;;3.60;3.30;;;;;;;;;;4998654;28;20242;-54
2023/01/03 11:28:06;;;;;;;3.87;3.40;;;;;;;;;;5009285;28;20190;-54
2023/01/03 11:30:33;;;;;;;3.53;3.23;;;;;;;;;;5008786;28;20193;-54
2023/01/03 11:32:58;;;;;;;3.60;3.30;;;;;;;;;;5009856;28;20839;-54
2023/01/03 11:35:27;;;;;;;6.43;3.40;;;;;;;;;;4999565;28;20230;-54
2023/01/03 11:38:12;;;;;;;4.33;3.27;;;;;;;;;;4999679;28;20198;-54
2023/01/03 11:40:41;;;;;;;3.30;3.00;;;;;;;;;;5006209;28;20183;-54
2023/01/03 11:43:26;;;;;;;3.37;3.00;;;;;;;;;;5011620;28;20233;-53
2023/01/03 11:45:58;;;;;;;3.20;2.80;;;;;;;;;;4995818;28;20614;-54
2023/01/03 11:48:27;;;;;;;3.40;3.10;;;;;;;;;;5007040;28;20193;-54
2023/01/03 11:50:54;;;;;;;4.40;3.27;;;;;;;;;;5003512;28;20190;-54
2023/01/03 11:53:20;;;;;;;3.40;3.10;;;;;;;;;;5010010;28;20237;-54
2023/01/03 11:55:46;;;;;;;3.73;2.93;;;;;;;;;;5000817;28;20175;-54
2023/01/03 11:58:19;;;;;;;3.43;2.63;;;;;;;;;;4999488;28;20841;-54
2023/01/03 12:00:54;;;;;;;5.00;2.80;;;;;;;;;;5002166;28;20198;-54
2023/01/03 12:03:20;;;;;;;12.63;3.77;;;;;;;;;;4983449;28;20187;-54
2023/01/03 12:05:48;;;;;;;4.13;2.80;;;;;;;;;;4989414;28;20182;-53
2023/01/03 12:08:32;;;;;;;7.23;2.80;;;;;;;;;;4999253;28;20262;-52
2023/01/03 12:11:10;;;;;;;5.80;2.87;;;;;;;;;;4993997;28;20536;-51
2023/01/03 12:13:36;;;;;;;6.40;2.47;;;;;;;;;;4983331;28;20179;-52
2023/01/03 12:16:02;;;;;;;6.47;2.63;;;;;;;;;;4999554;28;20254;-52
2023/01/03 12:18:34;;;;;;;3.70;2.33;;;;;;;;;;4992129;28;20218;-54
2023/01/03 12:21:04;;;;;;;4.00;2.00;;;;;;;;;;5004027;28;20538;-54
2023/01/03 12:23:41;;;;;;;3.07;1.90;;;;;;;;;;4999540;28;20178;-53
2023/01/03 12:26:09;;;;;;;4.53;2.03;;;;;;;;;;5000687;28;20178;-54
2023/01/03 12:28:39;;;;;;;2.60;2.13;;;;;;;;;;5002806;28;20206;-54
2023/01/03 12:31:29;;;;;;;3.50;2.20;;;;;;;;;;5000659;28;20182;-54
2023/01/03 12:34:13;;;;;;;3.13;1.83;;;;;;;;;;4997864;28;20186;-53
2023/01/03 12:36:42;;;;;;;1.87;1.67;;;;;;;;;;5004760;28;20239;-54
2023/01/03 12:39:26;;;;;;;6.13;2.00;;;;;;;;;;4998557;28;20170;-53
2023/01/03 12:41:59;;;;;;;7.10;1.73;;;;;;;;;;4982241;28;20187;-54
2023/01/03 12:44:27;;;;;;;4.63;2.33;;;;;;;;;;4997649;28;20181;-54
2023/01/03 12:46:54;;;;;;;3.77;2.93;;;;;;;;;;4994849;28;20187;-54
2023/01/03 12:49:25;;;;;;;2.20;1.77;;;;;;;;;;4997840;28;20522;-54
2023/01/03 12:51:58;;;;;;;3.73;1.90;;;;;;;;;;5001093;28;20182;-54
2023/01/03 12:54:27;;;;;;;2.73;1.83;;;;;;;;;;4996565;28;20222;-53
2023/01/03 12:57:12;;;;;;;2.63;1.90;;;;;;;;;;4996386;28;20272;-54
2023/01/03 12:59:57;;;;;;;6.00;3.27;;;;;;;;;;4986567;28;20178;-54
2023/01/03 13:02:29;;;;;;;3.93;2.13;;;;;;;;;;4998631;28;20263;-54
2023/01/03 13:04:58;;;;;;;2.50;1.70;;;;;;;;;;5005792;28;20197;-53
2023/01/03 13:07:31;;;;;;;2.77;1.60;;;;;;;;;;4996273;28;20240;-53
2023/01/03 13:09:59;;;;;;;2.97;1.83;;;;;;;;;;4994096;28;20229;-53
2023/01/03 13:12:27;;;;;;;2.73;1.90;;;;;;;;;;5000960;28;20189;-53
2023/01/03 13:15:15;;;;;;;2.60;1.93;;;;;;;;;;4992006;28;20186;-53
2023/01/03 13:17:42;;;;;;;3.43;1.37;;;;;;;;;;4988148;28;20221;-53
2023/01/03 13:20:35;;;;;;;2.33;2.10;;;;;;;;;;4976820;28;20183;-53
2023/01/03 13:23:13;;;;;;;2.30;1.90;;;;;;;;;;4993713;28;20771;-53
2023/01/03 13:25:43;;;;;;;3.73;1.70;;;;;;;;;;4992285;28;20607;-53
2023/01/03 13:28:18;;;;;;;2.40;1.60;;;;;;;;;;4991300;28;20182;-53
2023/01/03 13:30:44;;;;;;;4.63;1.60;;;;;;;;;;4993327;28;20748;-54
2023/01/03 13:33:10;;;;;;;3.17;1.70;;;;;;;;;;4976018;28;20282;-54
2023/01/03 13:35:50;;;;;;;4.23;1.80;;;;;;;;;;5003031;28;20182;-53
2023/01/03 13:38:17;;;;;;;4.03;1.77;;;;;;;;;;4993354;28;20209;-53
2023/01/03 13:40:50;;;;;;;3.30;1.70;;;;;;;;;;4993333;28;20185;-53
2023/01/03 13:43:20;;;;;;;3.17;1.77;;;;;;;;;;5000765;28;20171;-53
2023/01/03 13:45:56;;;;;;;2.80;1.70;;;;;;;;;;4997969;28;20713;-54
2023/01/03 13:48:23;;;;;;;3.93;2.37;;;;;;;;;;4994270;28;20212;-53
2023/01/03 13:51:02;;;;;;;1.63;1.53;;;;;;;;;;5002273;28;20704;-53
2023/01/03 13:53:45;;;;;;;2.00;1.67;;;;;;;;;;5006991;28;20252;-54
2023/01/03 13:56:14;;;;;;;2.37;2.17;;;;;;;;;;4985840;28;20244;-53
2023/01/03 13:58:42;;;;;;;4.10;2.00;;;;;;;;;;4994669;28;20717;-53
2023/01/03 14:01:18;;;;;;;4.10;2.10;;;;;;;;;;4987904;28;20178;-53
2023/01/03 14:03:50;;;;;;;6.27;2.37;;;;;;;;;;5002306;28;20457;-53
2023/01/03 14:06:25;;;;;;;4.50;1.80;;;;;;;;;;5001979;28;20178;-53
2023/01/03 14:09:10;;;;;;;2.83;2.20;;;;;;;;;;5003306;28;20178;-53
2023/01/03 14:11:36;;;;;;;2.63;2.30;;;;;;;;;;5000946;28;20186;-53
2023/01/03 14:14:16;;;;;;;3.83;2.00;;;;;;;;;;5005718;28;20611;-53
2023/01/03 14:16:45;;;;;;;2.93;2.10;;;;;;;;;;4999846;28;20580;-53
2023/01/03 14:19:16;;;;;;;2.70;2.00;;;;;;;;;;5002785;28;20185;-53
2023/01/03 14:22:03;;;;;;;3.00;2.10;;;;;;;;;;5000601;28;20264;-53
2023/01/03 14:24:30;;;;;;;2.40;1.70;;;;;;;;;;4995522;28;20253;-53
2023/01/03 14:27:04;;;;;;;2.20;2.00;;;;;;;;;;5006646;28;20174;-53
2023/01/03 14:29:30;;;;;;;4.10;1.80;;;;;;;;;;5000471;28;20409;-53
2023/01/03 14:31:58;;;;;;;2.97;1.97;;;;;;;;;;5005101;28;20187;-52
2023/01/03 14:34:28;;;;;;;7.07;2.40;;;;;;;;;;5002982;28;20581;-52
2023/01/03 14:36:59;;;;;;;3.73;2.00;;;;;;;;;;5005640;28;20281;-53
2023/01/03 14:39:31;;;;;;;3.17;1.80;;;;;;;;;;5002864;28;20664;-53
2023/01/03 14:41:58;;;;;;;2.50;1.97;;;;;;;;;;5000114;28;20182;-53
2023/01/03 14:44:24;;;;;;;4.53;2.07;;;;;;;;;;5006614;28;20626;-52
2023/01/03 14:46:52;;;;;;;6.90;2.13;;;;;;;;;;5002556;28;20685;-53
2023/01/03 14:49:21;;;;;;;2.03;1.83;;;;;;;;;;5004524;28;20171;-53
2023/01/03 14:51:47;;;;;;;3.10;1.87;;;;;;;;;;5002833;28;20662;-53
2023/01/03 14:54:19;;;;;;;2.13;1.63;;;;;;;;;;5002153;28;20633;-53
2023/01/03 14:56:45;;;;;;;2.20;1.70;;;;;;;;;;5000655;28;20547;-52
2023/01/03 14:59:16;;;;;;;1.93;1.83;;;;;;;;;;5007861;28;20189;-53
2023/01/03 15:01:43;;;;;;;2.13;1.80;;;;;;;;;;5008813;28;20170;-52
2023/01/03 15:04:13;;;;;;;2.43;2.00;;;;;;;;;;5008562;28;20183;-52
2023/01/03 15:06:39;;;;;;;5.40;1.87;;;;;;;;;;5006348;28;20184;-53
2023/01/03 15:09:21;;;;;;;2.77;1.77;;;;;;;;;;5007665;28;20613;-53
2023/01/03 15:11:54;;;;;;;2.13;1.77;;;;;;;;;;5005806;28;20523;-52
2023/01/03 15:14:21;;;;;;;4.87;1.60;;;;;;;;;;5010089;28;20158;-52
2023/01/03 15:16:49;;;;;;;1.70;1.40;;;;;;;;;;5005657;28;20692;-52
2023/01/03 15:19:24;;;;;;;2.30;1.80;;;;;;;;;;5007610;28;20178;-53
2023/01/03 15:21:50;;;;;;;4.47;1.70;;;;;;;;;;5007268;28;20621;-52
2023/01/03 15:24:21;;;;;;;2.10;1.60;;;;;;;;;;5007646;28;20419;-53
2023/01/03 15:26:49;;;;;;;2.03;1.63;;;;;;;;;;5003246;28;20685;-52
2023/01/03 15:29:19;;;;;;;1.40;1.30;;;;;;;;;;4981134;28;20654;-52
2023/01/03 15:32:05;;;;;;;4.70;1.80;;;;;;;;;;5007662;28;20257;-52
2023/01/03 15:34:31;;;;;;;3.10;1.73;;;;;;;;;;5007614;28;20538;-53
2023/01/03 15:37:16;;;;;;;1.53;1.43;;;;;;;;;;4980519;28;20600;-53
2023/01/03 15:39:46;;;;;;;1.30;1.20;;;;;;;;;;5007706;28;20198;-53
2023/01/03 15:44:59;;;;;;;4.27;2.00;;;;;;;;;;4990145;28;20535;-52
2023/01/03 15:47:28;;;;;;;1.50;1.40;;;;;;;;;;5000195;28;20205;-53
2023/01/03 15:49:56;;;;;;;1.77;1.47;;;;;;;;;;5002176;28;20187;-52
2023/01/03 15:52:22;;;;;;;2.40;1.50;;;;;;;;;;4986277;28;20642;-52
2023/01/03 15:54:48;;;;;;;1.57;1.40;;;;;;;;;;5008199;28;20225;-53
2023/01/03 15:57:22;;;;;;;1.83;1.43;;;;;;;;;;5006560;28;20822;-53
2023/01/03 15:59:53;;;;;;;2.63;1.90;;;;;;;;;;5005218;28;20175;-52
2023/01/03 16:02:19;;;;;;;2.80;1.90;;;;;;;;;;5007127;28;20187;-52